createdAt,value
2018-12-08T00:00:41.929Z,6.40
2018-12-08T00:03:15.145Z,6.30
2018-12-08T00:05:43.516Z,6.20
2018-12-08T00:08:22.675Z,6.20
2018-12-08T00:10:51.132Z,6.20
2018-12-08T00:13:20.344Z,6.20
2018-12-08T00:15:49.708Z,6.30
2018-12-08T00:18:21.622Z,6.30
2018-12-08T00:20:57.797Z,6.30
2018-12-08T00:23:26.330Z,6.30
2018-12-08T00:26:01.060Z,6.30
2018-12-08T00:28:29.337Z,6.20
2018-12-08T00:31:08.864Z,6.20
2018-12-08T00:33:37.134Z,6.20
2018-12-08T00:36:05.474Z,6.20
2018-12-08T00:38:33.887Z,6.20
2018-12-08T00:41:02.174Z,6.30
2018-12-08T00:43:30.385Z,6.20
2018-12-08T00:45:58.675Z,6.20
2018-12-08T00:48:26.952Z,6.20
2018-12-08T00:50:55.344Z,6.10
2018-12-08T00:53:23.872Z,6.10
2018-12-08T00:55:52.699Z,6.00
2018-12-08T00:58:20.934Z,6.10
2018-12-08T01:00:49.161Z,6.10
2018-12-08T01:03:18.874Z,6.10
2018-12-08T01:05:47.239Z,6.10
2018-12-08T01:08:19.218Z,6.10
2018-12-08T01:10:47.887Z,6.10
2018-12-08T01:13:16.275Z,6.10
2018-12-08T01:15:44.718Z,6.10
2018-12-08T01:18:12.952Z,6.10
2018-12-08T01:20:41.550Z,6.10
2018-12-08T01:23:12.273Z,6.20
2018-12-08T01:25:41.170Z,6.20
2018-12-08T01:28:13.594Z,6.20
2018-12-08T01:30:44.236Z,6.20
2018-12-08T01:33:12.872Z,6.30
2018-12-08T01:35:41.168Z,6.30
2018-12-08T01:38:10.200Z,6.30
2018-12-08T01:40:40.030Z,6.20
2018-12-08T01:43:08.284Z,6.30
2018-12-08T01:50:46.988Z,6.40
2018-12-08T01:53:16.328Z,6.30
2018-12-08T01:59:05.747Z,6.40
2018-12-08T02:01:51.739Z,6.40
2018-12-08T02:04:21.013Z,6.30
2018-12-08T02:06:50.629Z,6.30
2018-12-08T02:09:18.967Z,6.30
2018-12-08T02:11:48.104Z,6.20
2018-12-08T02:14:16.830Z,6.20
2018-12-08T02:16:46.500Z,6.20
2018-12-08T02:19:25.015Z,6.20
2018-12-08T02:25:28.195Z,6.30
2018-12-08T02:28:02.520Z,6.20
2018-12-08T02:30:30.899Z,6.20
2018-12-08T02:32:59.690Z,6.10
2018-12-08T02:35:27.946Z,6.10
2018-12-08T02:37:57.275Z,6.00
2018-12-08T02:40:25.576Z,5.90
2018-12-08T02:42:55.368Z,6.00
2018-12-08T02:45:24.922Z,6.00
2018-12-08T02:47:54.944Z,5.90
2018-12-08T02:50:29.047Z,5.90
2018-12-08T02:52:57.422Z,5.90
2018-12-08T02:55:25.799Z,5.90
2018-12-08T02:58:09.499Z,5.90
2018-12-08T03:05:07.982Z,5.90
2018-12-08T03:07:41.213Z,6.00
2018-12-08T03:10:10.029Z,6.00
2018-12-08T03:12:38.620Z,6.00
2018-12-08T03:15:07.181Z,6.00
2018-12-08T03:17:35.384Z,5.90
2018-12-08T03:20:05.633Z,6.00
2018-12-08T03:22:45.142Z,6.00
2018-12-08T03:25:13.814Z,5.90
2018-12-08T03:27:44.737Z,5.90
2018-12-08T03:30:13.154Z,5.90
2018-12-08T03:32:41.467Z,5.90
2018-12-08T03:35:09.766Z,5.90
2018-12-08T03:37:39.550Z,5.90
2018-12-08T03:40:08.311Z,5.90
2018-12-08T03:42:37.565Z,5.90
2018-12-08T03:45:06.700Z,5.80
2018-12-08T03:47:35.209Z,5.80
2018-12-08T03:50:06.054Z,5.70
2018-12-08T03:52:39.830Z,5.70
2018-12-08T03:55:08.305Z,5.60
2018-12-08T03:57:38.167Z,5.50
2018-12-08T04:00:07.279Z,5.40
2018-12-08T04:02:35.592Z,5.40
2018-12-08T04:05:04.673Z,5.30
2018-12-08T04:07:33.167Z,5.20
2018-12-08T04:10:05.055Z,5.10
2018-12-08T04:12:33.686Z,4.90
2018-12-08T04:15:02.721Z,4.80
2018-12-08T04:17:31.362Z,4.90
2018-12-08T04:19:59.596Z,5.00
2018-12-08T04:22:27.846Z,5.10
2018-12-08T04:24:56.744Z,5.20
2018-12-08T04:27:25.844Z,5.30
2018-12-08T04:29:54.215Z,5.40
2018-12-08T04:32:22.596Z,5.40
2018-12-08T04:34:51.927Z,5.40
2018-12-08T04:37:20.910Z,5.50
2018-12-08T04:39:49.299Z,5.50
2018-12-08T04:42:36.145Z,5.50
2018-12-08T04:48:22.534Z,5.50
2018-12-08T04:50:58.256Z,5.40
2018-12-08T04:53:27.446Z,5.50
2018-12-08T04:56:02.457Z,5.50
2018-12-08T04:58:41.151Z,5.50
2018-12-08T05:17:12.572Z,5.50
2018-12-08T05:19:42.465Z,5.60
2018-12-08T05:22:13.016Z,5.60
2018-12-08T05:37:51.416Z,5.60
2018-12-08T05:40:45.352Z,5.60
2018-12-08T05:43:17.879Z,5.40
2018-12-08T05:46:26.873Z,5.40
2018-12-08T05:49:03.223Z,5.40
2018-12-08T05:51:31.480Z,5.40
2018-12-08T06:02:48.888Z,5.40
2018-12-08T06:05:17.392Z,5.40
2018-12-08T06:07:46.594Z,5.40
2018-12-08T06:10:27.053Z,5.40
2018-12-08T06:12:55.233Z,5.40
2018-12-08T06:15:23.433Z,5.40
2018-12-08T06:17:51.721Z,5.40
2018-12-08T06:20:20.386Z,5.50
2018-12-08T06:23:03.151Z,5.50
2018-12-08T06:25:36.252Z,5.50
2018-12-08T06:28:11.746Z,5.50
2018-12-08T06:30:39.900Z,5.50
2018-12-08T06:33:08.635Z,5.50
2018-12-08T06:35:38.153Z,5.50
2018-12-08T06:38:07.173Z,5.50
2018-12-08T06:40:35.308Z,5.50
2018-12-08T06:43:03.953Z,5.50
2018-12-08T06:45:33.881Z,5.50
2018-12-08T06:48:02.030Z,5.60
2018-12-08T06:50:30.210Z,5.70
2018-12-08T06:52:58.440Z,5.60
2018-12-08T06:55:27.075Z,5.60
2018-12-08T06:57:55.640Z,5.60
2018-12-08T07:00:27.090Z,5.70
2018-12-08T07:02:55.291Z,5.70
2018-12-08T07:05:23.651Z,5.70
2018-12-08T07:07:52.680Z,5.70
2018-12-08T07:10:21.990Z,5.70
2018-12-08T07:12:50.167Z,5.80
2018-12-08T07:15:18.499Z,5.80
2018-12-08T07:17:46.724Z,5.70
2018-12-08T07:20:15.230Z,5.80
2018-12-08T07:22:43.501Z,5.80
2018-12-08T07:31:28.482Z,5.80
2018-12-08T07:37:03.017Z,5.80
2018-12-08T07:45:43.399Z,5.80
2018-12-08T07:48:12.105Z,5.80
2018-12-08T07:50:40.279Z,5.80
2018-12-08T07:53:09.163Z,5.80
2018-12-08T07:59:14.222Z,5.80
2018-12-08T08:04:35.551Z,5.90
2018-12-08T08:07:04.175Z,5.90
2018-12-08T08:09:32.916Z,5.90
2018-12-08T08:12:05.778Z,5.80
2018-12-08T08:14:34.037Z,5.80
2018-12-08T08:17:02.903Z,5.70
2018-12-08T08:19:31.089Z,5.70
2018-12-08T08:21:59.383Z,5.60
2018-12-08T08:24:33.559Z,5.60
2018-12-08T08:27:08.283Z,5.60
2018-12-08T08:52:44.199Z,5.50
2018-12-08T08:55:35.582Z,5.60
2018-12-08T09:09:00.221Z,5.70
2018-12-08T09:11:30.281Z,6.00
2018-12-08T09:22:34.593Z,6.00
2018-12-08T09:25:02.929Z,5.90
2018-12-08T09:27:31.101Z,5.70
2018-12-08T09:30:03.535Z,5.70
2018-12-08T09:32:31.799Z,5.70
2018-12-08T09:34:59.983Z,5.80
2018-12-08T09:37:29.089Z,5.70
2018-12-08T09:39:57.325Z,5.80
2018-12-08T09:42:25.850Z,5.70
2018-12-08T09:44:54.045Z,5.70
2018-12-08T09:47:22.276Z,5.70
2018-12-08T09:49:50.576Z,5.70
2018-12-08T09:52:20.831Z,5.80
2018-12-08T09:54:49.365Z,5.90
2018-12-08T09:57:17.616Z,5.90
2018-12-08T09:59:45.833Z,5.90
2018-12-08T10:02:14.073Z,5.90
2018-12-08T10:04:42.573Z,5.90
2018-12-08T10:07:10.829Z,5.90
2018-12-08T10:09:39.020Z,6.00
2018-12-08T10:12:15.752Z,6.00
2018-12-08T10:14:43.972Z,6.00
2018-12-08T10:17:12.177Z,5.90
2018-12-08T10:19:40.353Z,6.00
2018-12-08T10:22:08.609Z,6.00
2018-12-08T10:24:36.799Z,6.00
2018-12-08T10:27:05.004Z,6.00
2018-12-08T10:29:34.817Z,5.90
2018-12-08T10:32:03.241Z,6.00
2018-12-08T10:34:31.440Z,6.00
2018-12-08T10:36:59.594Z,6.10
2018-12-08T10:39:27.846Z,6.20
2018-12-08T10:41:55.980Z,6.20
2018-12-08T10:44:24.132Z,6.40
2018-12-08T10:46:52.380Z,6.40
2018-12-08T10:49:20.651Z,6.50
2018-12-08T10:51:48.919Z,6.50
2018-12-08T10:54:17.112Z,6.50
2018-12-08T10:56:45.373Z,6.40
2018-12-08T10:59:14.283Z,6.40
2018-12-08T11:01:47.940Z,6.40
2018-12-08T11:04:16.160Z,6.40
2018-12-08T11:06:44.340Z,6.40
2018-12-08T11:09:15.472Z,6.50
2018-12-08T11:11:44.689Z,6.60
2018-12-08T11:14:12.856Z,6.80
2018-12-08T11:16:41.132Z,6.80
2018-12-08T11:19:10.317Z,6.80
2018-12-08T11:21:38.731Z,7.00
2018-12-08T11:24:07.611Z,7.10
2018-12-08T11:26:51.234Z,7.20
2018-12-08T11:29:25.179Z,7.30
2018-12-08T11:31:53.931Z,7.20
2018-12-08T11:41:17.543Z,7.20
2018-12-08T11:46:48.275Z,7.30
2018-12-08T12:22:05.238Z,7.50
2018-12-08T12:30:10.667Z,7.60
2018-12-08T12:40:50.292Z,7.60
2018-12-08T12:43:23.180Z,7.80
2018-12-08T12:46:03.334Z,7.80
2018-12-08T12:58:13.761Z,7.90
2018-12-08T13:12:38.617Z,7.70
2018-12-08T13:15:14.184Z,7.60
2018-12-08T13:24:16.594Z,7.80
2018-12-08T13:30:14.225Z,8.00
2018-12-08T14:26:59.978Z,7.80
2018-12-08T14:29:36.477Z,7.80
2018-12-08T14:46:39.973Z,7.50
2018-12-08T14:50:06.696Z,7.40
2018-12-08T15:08:03.648Z,7.40
2018-12-08T15:19:16.219Z,7.30
2018-12-08T15:31:34.440Z,7.30
2018-12-08T15:37:02.180Z,7.30
2018-12-08T15:39:34.452Z,7.40
2018-12-08T15:42:09.011Z,7.30
2018-12-08T15:47:20.629Z,7.40
2018-12-08T15:49:54.705Z,7.30
2018-12-08T15:55:21.602Z,7.30
2018-12-08T15:58:11.606Z,7.40
2018-12-08T16:00:41.160Z,7.40
2018-12-08T16:03:10.408Z,7.40
2018-12-08T16:05:42.794Z,7.30
2018-12-08T16:08:20.967Z,7.20
2018-12-08T16:11:04.766Z,7.10
2018-12-08T16:13:46.230Z,7.10
2018-12-08T16:21:42.257Z,7.10
2018-12-08T16:24:14.254Z,7.00
2018-12-08T16:26:50.071Z,7.00
2018-12-08T16:29:35.477Z,7.00
2018-12-08T16:32:24.135Z,7.10
2018-12-08T16:34:58.012Z,7.10
2018-12-08T16:42:11.356Z,7.00
2018-12-08T16:44:43.187Z,7.10
2018-12-08T16:47:12.226Z,7.10
2018-12-08T16:49:54.096Z,7.10
2018-12-08T16:52:23.452Z,7.10
2018-12-08T16:54:55.410Z,7.00
2018-12-08T16:57:26.579Z,7.00
2018-12-08T17:00:09.732Z,7.00
2018-12-08T17:03:06.784Z,7.00
2018-12-08T17:05:41.410Z,7.10
2018-12-08T17:11:05.940Z,7.00
2018-12-08T17:13:35.609Z,6.90
2018-12-08T17:16:10.570Z,7.00
2018-12-08T17:18:42.751Z,7.10
2018-12-08T17:21:17.833Z,7.10
2018-12-08T17:29:26.698Z,7.20
2018-12-08T17:37:08.974Z,7.20
2018-12-08T17:48:33.626Z,7.20
2018-12-08T17:56:51.803Z,7.30
2018-12-08T17:59:22.759Z,7.30
2018-12-08T18:14:48.520Z,7.50
2018-12-08T18:44:17.650Z,7.50
2018-12-08T18:46:46.627Z,7.40
2018-12-08T18:49:32.547Z,7.40
2018-12-08T19:08:56.233Z,7.40
2018-12-08T19:11:35.908Z,7.30
2018-12-08T19:27:47.793Z,7.10
2018-12-08T19:30:16.134Z,7.10
2018-12-08T19:32:51.344Z,7.10
2018-12-08T19:37:59.785Z,7.10
2018-12-08T19:40:28.156Z,7.10
2018-12-08T19:42:58.247Z,7.10
2018-12-08T19:45:26.445Z,7.20
2018-12-08T19:47:54.859Z,7.10
2018-12-08T19:50:23.319Z,7.10
2018-12-08T19:52:51.761Z,7.20
2018-12-08T19:55:23.028Z,7.10
2018-12-08T20:01:02.846Z,7.10
2018-12-08T20:09:48.587Z,7.20
2018-12-08T20:12:20.331Z,7.20
2018-12-08T20:14:54.516Z,7.10
2018-12-08T20:17:22.931Z,7.10
2018-12-08T21:29:45.654Z,7.60
2018-12-08T21:40:39.112Z,7.60
2018-12-08T21:43:17.686Z,7.70
2018-12-08T21:49:39.395Z,7.80
2018-12-08T21:55:53.851Z,7.90
2018-12-08T21:58:24.904Z,7.90
2018-12-08T22:01:10.264Z,7.90
2018-12-08T22:03:39.838Z,8.00
2018-12-08T22:06:13.115Z,7.90
2018-12-08T22:24:49.824Z,8.00
2018-12-08T22:27:36.860Z,8.00
2018-12-08T22:34:55.823Z,8.00
2018-12-08T22:54:34.784Z,8.20
2018-12-08T22:57:19.820Z,8.20
2018-12-08T23:05:34.101Z,8.20
2018-12-08T23:08:23.952Z,8.20
2018-12-08T23:10:52.894Z,8.20
2018-12-08T23:13:24.647Z,8.20
2018-12-08T23:15:56.427Z,8.00
2018-12-08T23:18:33.122Z,7.70
2018-12-08T23:38:53.928Z,7.90
2018-12-08T23:41:27.735Z,8.00
2018-12-08T23:50:36.965Z,8.00
2018-12-08T23:53:24.366Z,8.00
